Airfield :
LOGIN :

Register | Disclaimer

   EN    FR    IT 

 










Legend :    VFR   Marginal VFR   IFR   Intensive IFR   Very Intensive IFR
Visi :
Ceiling :
>= 8 km
>= 3000ft
5 to 8 km
1000 to 3000 ft
1500m to 5 km
500 to 1000 ft
800 to 1500m
200 to 500 ft
< 800m
< 200 ft
Symbols :   Thunderstorms  Fog  Heavy snow  Heavy precipitations  Wind > 20 kt
SIGMETs :     Misc.  Thunderstorms  Icing  Turbulence  Mountain Waves  Volcanic Ashes






- Airport Elevation : 1460 ft


LSMA - Alpnach

CURRENT METAR :
  • 231950Z AUTO VRB02KT 7000NDV RA SCT120 22/18 Q1013 RMK

EXPIRED METARs :
  • 231920Z AUTO VRB01KT 9999NDV SCT120 23/19 Q1012 RMK
  • 231850Z AUTO VRB01KT 9999NDV BKN120 24/19 Q1012 RMK
  • 231820Z AUTO 00000KT 9999NDV BKN130 25/19 Q1012 RMK
  • 231750Z AUTO 00000KT 9999NDV SCT130 25/19 Q1013 RMK
  • 231720Z AUTO 00000KT 9999NDV NCD 27/19 Q1013 RMK

Expired Forecast.



MET'MAP, your aeronautical weather chart ! - Copyright ORBIFLY December 2007 - Disclaimer

ORBIFLY MET'MAP TEAM :

Programming & Development : Alexandra Zaïnal
Concept & original design : Baudouin d'Aumeries
Assistance for programming : Marc-Olivier Méhu
Technical & hardware support : Manuel Goepfert

Contact : metmap@orbifly.com




SOURCES & CREDITS :

   NOAA